sensor_id;sensor_type;location;lat;lon;timestamp;pressure;altitude;pressure_sealevel;temperature;humidity
46946;BME280;32679;40.810;14.498;2022-09-09T00:01:35;100004.53;;;25.12;72.77
46946;BME280;32679;40.810;14.498;2022-09-09T00:04:05;99999.00;;;25.18;71.94
46946;BME280;32679;40.810;14.498;2022-09-09T00:06:46;100000.59;;;25.19;72.22
46946;BME280;32679;40.810;14.498;2022-09-09T00:09:16;99998.69;;;25.16;72.02
46946;BME280;32679;40.810;14.498;2022-09-09T00:16:50;99990.16;;;25.16;72.45
46946;BME280;32679;40.810;14.498;2022-09-09T00:25:14;99989.19;;;25.19;71.79
46946;BME280;32679;40.810;14.498;2022-09-09T00:27:49;99984.78;;;25.18;71.82
46946;BME280;32679;40.810;14.498;2022-09-09T00:30:19;99986.34;;;25.19;71.97
46946;BME280;32679;40.810;14.498;2022-09-09T00:32:47;99988.56;;;25.15;72.10
46946;BME280;32679;40.810;14.498;2022-09-09T00:35:56;99987.31;;;25.16;71.97
46946;BME280;32679;40.810;14.498;2022-09-09T00:38:10;99980.47;;;25.13;71.79
46946;BME280;32679;40.810;14.498;2022-09-09T00:40:37;99979.25;;;25.14;71.68
46946;BME280;32679;40.810;14.498;2022-09-09T00:43:17;99968.66;;;25.15;71.66
46946;BME280;32679;40.810;14.498;2022-09-09T00:48:26;99967.38;;;25.16;71.60
46946;BME280;32679;40.810;14.498;2022-09-09T00:50:57;99967.03;;;25.14;71.72
46946;BME280;32679;40.810;14.498;2022-09-09T00:56:09;99963.44;;;25.22;71.26
46946;BME280;32679;40.810;14.498;2022-09-09T00:58:36;99966.75;;;25.21;71.25
46946;BME280;32679;40.810;14.498;2022-09-09T01:01:06;99968.34;;;25.22;71.01
46946;BME280;32679;40.810;14.498;2022-09-09T01:03:47;99970.88;;;25.20;71.12
46946;BME280;32679;40.810;14.498;2022-09-09T01:06:16;99983.06;;;25.20;71.22
46946;BME280;32679;40.810;14.498;2022-09-09T01:11:21;99979.41;;;25.20;71.23
46946;BME280;32679;40.810;14.498;2022-09-09T01:13:49;99971.50;;;25.24;70.96
46946;BME280;32679;40.810;14.498;2022-09-09T01:16:18;99976.75;;;25.25;70.74
46946;BME280;32679;40.810;14.498;2022-09-09T01:18:44;99968.34;;;25.22;71.20
46946;BME280;32679;40.810;14.498;2022-09-09T01:29:01;99955.03;;;25.19;71.83
46946;BME280;32679;40.810;14.498;2022-09-09T01:31:35;99949.03;;;25.17;71.83
46946;BME280;32679;40.810;14.498;2022-09-09T01:34:01;99958.84;;;25.16;71.97
46946;BME280;32679;40.810;14.498;2022-09-09T01:36:38;99951.56;;;25.15;71.74
46946;BME280;32679;40.810;14.498;2022-09-09T01:39:06;99944.59;;;25.16;72.10
46946;BME280;32679;40.810;14.498;2022-09-09T01:41:31;99944.13;;;25.17;71.70
46946;BME280;32679;40.810;14.498;2022-09-09T01:43:57;99942.41;;;25.20;71.18
46946;BME280;32679;40.810;14.498;2022-09-09T01:46:22;99946.06;;;25.20;70.93
46946;BME280;32679;40.810;14.498;2022-09-09T01:48:49;99954.41;;;25.24;71.33
46946;BME280;32679;40.810;14.498;2022-09-09T01:51:15;99950.69;;;25.36;69.56
46946;BME280;32679;40.810;14.498;2022-09-09T01:53:40;99953.34;;;25.30;69.93
46946;BME280;32679;40.810;14.498;2022-09-09T02:03:47;99948.06;;;25.11;70.54
46946;BME280;32679;40.810;14.498;2022-09-09T02:08:57;99949.91;;;25.04;70.55
46946;BME280;32679;40.810;14.498;2022-09-09T02:11:26;99951.03;;;25.07;70.74
46946;BME280;32679;40.810;14.498;2022-09-09T02:13:57;99950.91;;;25.11;70.73
46946;BME280;32679;40.810;14.498;2022-09-09T02:16:38;99953.16;;;25.16;70.61
46946;BME280;32679;40.810;14.498;2022-09-09T02:19:13;99942.69;;;25.13;71.00
46946;BME280;32679;40.810;14.498;2022-09-09T02:21:41;99943.28;;;25.07;70.89
46946;BME280;32679;40.810;14.498;2022-09-09T02:24:08;99947.34;;;24.97;70.78
46946;BME280;32679;40.810;14.498;2022-09-09T02:26:38;99945.09;;;24.92;71.22
46946;BME280;32679;40.810;14.498;2022-09-09T02:29:06;99938.97;;;25.03;70.88
46946;BME280;32679;40.810;14.498;2022-09-09T02:31:33;99934.88;;;25.04;70.55
46946;BME280;32679;40.810;14.498;2022-09-09T02:34:01;99939.59;;;24.98;71.28
46946;BME280;32679;40.810;14.498;2022-09-09T02:36:28;99939.19;;;25.08;70.95
46946;BME280;32679;40.810;14.498;2022-09-09T02:38:55;99951.16;;;25.03;71.66
46946;BME280;32679;40.810;14.498;2022-09-09T02:41:24;99944.81;;;24.99;72.27
46946;BME280;32679;40.810;14.498;2022-09-09T02:43:50;99931.69;;;25.02;72.21
46946;BME280;32679;40.810;14.498;2022-09-09T02:49:06;99935.94;;;24.97;72.41
46946;BME280;32679;40.810;14.498;2022-09-09T02:56:49;99921.41;;;24.95;72.10
46946;BME280;32679;40.810;14.498;2022-09-09T02:59:16;99914.38;;;25.09;72.05
46946;BME280;32679;40.810;14.498;2022-09-09T03:01:42;99917.28;;;24.96;72.65
46946;BME280;32679;40.810;14.498;2022-09-09T03:04:09;99916.97;;;24.94;72.62
46946;BME280;32679;40.810;14.498;2022-09-09T03:06:34;99917.00;;;25.03;71.81
46946;BME280;32679;40.810;14.498;2022-09-09T03:09:00;99909.41;;;25.00;72.05
46946;BME280;32679;40.810;14.498;2022-09-09T03:11:27;99926.44;;;24.91;72.50
46946;BME280;32679;40.810;14.498;2022-09-09T03:13:53;99926.13;;;24.89;73.07
46946;BME280;32679;40.810;14.498;2022-09-09T03:16:20;99927.75;;;24.99;72.44
46946;BME280;32679;40.810;14.498;2022-09-09T03:18:46;99939.53;;;25.11;72.14
46946;BME280;32679;40.810;14.498;2022-09-09T03:21:11;99935.94;;;24.97;72.26
46946;BME280;32679;40.810;14.498;2022-09-09T03:23:37;99945.09;;;24.92;72.90
46946;BME280;32679;40.810;14.498;2022-09-09T03:26:02;99944.78;;;24.90;73.58
46946;BME280;32679;40.810;14.498;2022-09-09T03:28:27;99938.47;;;24.95;72.99
46946;BME280;32679;40.810;14.498;2022-09-09T03:31:03;99942.59;;;24.94;73.07
46946;BME280;32679;40.810;14.498;2022-09-09T03:33:29;99964.56;;;24.94;73.27
46946;BME280;32679;40.810;14.498;2022-09-09T03:35:55;99961.38;;;24.92;73.13
46946;BME280;32679;40.810;14.498;2022-09-09T03:38:22;99964.41;;;24.97;72.84
46946;BME280;32679;40.810;14.498;2022-09-09T03:40:53;99952.41;;;24.93;73.20
46946;BME280;32679;40.810;14.498;2022-09-09T03:43:26;99950.19;;;24.97;73.45
46946;BME280;32679;40.810;14.498;2022-09-09T03:45:52;99940.19;;;24.93;73.30
46946;BME280;32679;40.810;14.498;2022-09-09T03:48:21;99922.66;;;24.94;73.44
46946;BME280;32679;40.810;14.498;2022-09-09T03:50:51;99912.38;;;24.97;72.97
46946;BME280;32679;40.810;14.498;2022-09-09T03:53:18;99910.06;;;25.04;72.13
46946;BME280;32679;40.810;14.498;2022-09-09T03:55:44;99908.75;;;24.96;72.72
46946;BME280;32679;40.810;14.498;2022-09-09T03:58:14;99902.22;;;25.18;71.18
46946;BME280;32679;40.810;14.498;2022-09-09T04:00:40;99892.66;;;25.02;71.81
46946;BME280;32679;40.810;14.498;2022-09-09T04:03:07;99889.50;;;25.00;71.81
46946;BME280;32679;40.810;14.498;2022-09-09T04:05:33;99882.19;;;24.90;71.74
46946;BME280;32679;40.810;14.498;2022-09-09T04:07:59;99892.66;;;25.02;71.25
46946;BME280;32679;40.810;14.498;2022-09-09T04:10:24;99892.41;;;25.10;71.27
46946;BME280;32679;40.810;14.498;2022-09-09T04:12:49;99903.84;;;24.97;71.69
46946;BME280;32679;40.810;14.498;2022-09-09T04:15:15;99887.91;;;24.99;71.75
46946;BME280;32679;40.810;14.498;2022-09-09T04:17:40;99893.72;;;24.96;72.03
46946;BME280;32679;40.810;14.498;2022-09-09T04:20:06;99896.09;;;24.97;72.09
46946;BME280;32679;40.810;14.498;2022-09-09T04:22:36;99912.38;;;24.97;71.89
46946;BME280;32679;40.810;14.498;2022-09-09T04:25:04;99917.94;;;25.00;71.74
46946;BME280;32679;40.810;14.498;2022-09-09T04:27:29;99912.72;;;24.99;71.55
46946;BME280;32679;40.810;14.498;2022-09-09T04:29:55;99903.09;;;25.05;71.63
46946;BME280;32679;40.810;14.498;2022-09-09T04:32:21;99889.56;;;25.10;71.06
46946;BME280;32679;40.810;14.498;2022-09-09T04:34:47;99891.13;;;25.11;70.84
46946;BME280;32679;40.810;14.498;2022-09-09T04:37:12;99903.63;;;25.13;70.83
46946;BME280;32679;40.810;14.498;2022-09-09T04:39:38;99906.34;;;25.17;70.51
46946;BME280;32679;40.810;14.498;2022-09-09T04:42:04;99911.72;;;25.15;69.30
46946;BME280;32679;40.810;14.498;2022-09-09T04:44:29;99916.44;;;25.18;69.25
46946;BME280;32679;40.810;14.498;2022-09-09T04:46:55;99942.72;;;25.22;69.10
46946;BME280;32679;40.810;14.498;2022-09-09T04:49:21;99946.84;;;25.30;69.53
46946;BME280;32679;40.810;14.498;2022-09-09T04:51:48;99966.16;;;25.35;69.03
46946;BME280;32679;40.810;14.498;2022-09-09T04:54:14;99969.00;;;25.35;69.03
46946;BME280;32679;40.810;14.498;2022-09-09T04:56:39;99977.94;;;25.46;69.21
46946;BME280;32679;40.810;14.498;2022-09-09T04:59:06;99978.25;;;25.48;68.87
46946;BME280;32679;40.810;14.498;2022-09-09T05:01:31;99981.44;;;25.59;68.42
46946;BME280;32679;40.810;14.498;2022-09-09T05:03:57;99998.03;;;25.61;68.19
46946;BME280;32679;40.810;14.498;2022-09-09T05:06:22;99999.16;;;25.64;67.64
46946;BME280;32679;40.810;14.498;2022-09-09T05:08:48;100001.06;;;25.67;67.70
46946;BME280;32679;40.810;14.498;2022-09-09T05:11:24;99979.72;;;25.62;67.37
46946;BME280;32679;40.810;14.498;2022-09-09T05:13:51;99970.50;;;25.67;67.57
46946;BME280;32679;40.810;14.498;2022-09-09T05:16:16;99951.03;;;25.66;66.90
46946;BME280;32679;40.810;14.498;2022-09-09T05:18:42;99936.16;;;25.52;67.38
46946;BME280;32679;40.810;14.498;2022-09-09T05:21:10;99929.19;;;25.53;67.40
46946;BME280;32679;40.810;14.498;2022-09-09T05:23:36;99930.47;;;25.61;67.19
46946;BME280;32679;40.810;14.498;2022-09-09T05:26:03;99934.31;;;25.77;67.02
46946;BME280;32679;40.810;14.498;2022-09-09T05:28:28;99941.94;;;25.89;66.19
46946;BME280;32679;40.810;14.498;2022-09-09T05:31:01;99947.00;;;26.03;65.76
46946;BME280;32679;40.810;14.498;2022-09-09T05:33:29;99947.00;;;26.22;65.71
46946;BME280;32679;40.810;14.498;2022-09-09T05:35:59;99944.44;;;26.24;65.45
46946;BME280;32679;40.810;14.498;2022-09-09T05:38:24;99942.09;;;26.22;65.13
46946;BME280;32679;40.810;14.498;2022-09-09T05:40:50;99943.22;;;26.16;65.53
46946;BME280;32679;40.810;14.498;2022-09-09T05:43:17;99931.16;;;26.02;65.60
46946;BME280;32679;40.810;14.498;2022-09-09T05:45:42;99923.56;;;25.81;67.14
46946;BME280;32679;40.810;14.498;2022-09-09T05:48:07;99921.34;;;25.76;67.67
46946;BME280;32679;40.810;14.498;2022-09-09T05:50:33;99922.22;;;25.54;68.59
46946;BME280;32679;40.810;14.498;2022-09-09T05:52:58;99934.75;;;25.57;68.78
46946;BME280;32679;40.810;14.498;2022-09-09T05:55:24;99970.97;;;25.56;68.87
46946;BME280;32679;40.810;14.498;2022-09-09T05:57:50;100008.50;;;25.64;68.78
46946;BME280;32679;40.810;14.498;2022-09-09T06:00:17;100051.72;;;25.63;68.95
46946;BME280;32679;40.810;14.498;2022-09-09T06:02:42;100059.31;;;25.66;68.88
46946;BME280;32679;40.810;14.498;2022-09-09T06:05:07;100042.53;;;25.58;68.93
46946;BME280;32679;40.810;14.498;2022-09-09T06:07:33;100054.22;;;25.60;69.29
46946;BME280;32679;40.810;14.498;2022-09-09T06:09:58;100065.97;;;25.63;69.31
46946;BME280;32679;40.810;14.498;2022-09-09T06:12:25;100109.81;;;25.65;69.01
46946;BME280;32679;40.810;14.498;2022-09-09T06:14:50;100164.28;;;25.45;68.02
46946;BME280;32679;40.810;14.498;2022-09-09T06:17:16;100172.69;;;24.48;67.91
46946;BME280;32679;40.810;14.498;2022-09-09T06:19:42;100167.53;;;23.41;70.54
46946;BME280;32679;40.810;14.498;2022-09-09T06:22:07;100137.78;;;22.91;76.65
46946;BME280;32679;40.810;14.498;2022-09-09T06:24:34;100101.41;;;22.28;79.17
46946;BME280;32679;40.810;14.498;2022-09-09T06:26:59;100071.22;;;22.05;78.32
46946;BME280;32679;40.810;14.498;2022-09-09T06:29:25;100086.88;;;22.10;77.86
46946;BME280;32679;40.810;14.498;2022-09-09T06:31:50;100086.88;;;22.10;79.43
46946;BME280;32679;40.810;14.498;2022-09-09T06:34:16;100054.50;;;21.78;83.33
46946;BME280;32679;40.810;14.498;2022-09-09T06:36:41;100062.09;;;21.49;83.16
46946;BME280;32679;40.810;14.498;2022-09-09T06:39:06;100076.44;;;21.41;83.95
46946;BME280;32679;40.810;14.498;2022-09-09T06:41:33;100074.47;;;21.38;84.10
46946;BME280;32679;40.810;14.498;2022-09-09T06:43:59;100089.63;;;21.48;84.20
46946;BME280;32679;40.810;14.498;2022-09-09T06:46:25;100066.19;;;21.48;84.14
46946;BME280;32679;40.810;14.498;2022-09-09T06:48:56;100031.16;;;21.58;81.91
46946;BME280;32679;40.810;14.498;2022-09-09T06:51:24;100041.94;;;21.63;82.26
46946;BME280;32679;40.810;14.498;2022-09-09T06:53:51;100053.44;;;21.72;85.31
46946;BME280;32679;40.810;14.498;2022-09-09T06:56:18;100059.28;;;21.81;85.75
46946;BME280;32679;40.810;14.498;2022-09-09T06:58:44;100055.84;;;21.90;86.14
46946;BME280;32679;40.810;14.498;2022-09-09T07:01:14;100080.44;;;21.93;84.93
46946;BME280;32679;40.810;14.498;2022-09-09T07:03:40;100077.78;;;21.69;85.33
46946;BME280;32679;40.810;14.498;2022-09-09T07:06:05;100076.97;;;21.69;84.92
46946;BME280;32679;40.810;14.498;2022-09-09T07:08:31;100081.06;;;21.68;85.27
46946;BME280;32679;40.810;14.498;2022-09-09T07:11:03;100091.50;;;21.71;87.12
46946;BME280;32679;40.810;14.498;2022-09-09T07:13:32;100078.75;;;21.47;88.70
46946;BME280;32679;40.810;14.498;2022-09-09T07:16:08;100072.78;;;21.41;89.04
46946;BME280;32679;40.810;14.498;2022-09-09T07:18:33;100063.31;;;21.31;89.83
46946;BME280;32679;40.810;14.498;2022-09-09T07:21:00;100085.38;;;21.56;90.09
46946;BME280;32679;40.810;14.498;2022-09-09T07:23:27;100078.75;;;21.63;89.29
46946;BME280;32679;40.810;14.498;2022-09-09T07:25:52;100060.88;;;21.66;89.11
46946;BME280;32679;40.810;14.498;2022-09-09T07:28:18;100065.41;;;21.80;89.70
46946;BME280;32679;40.810;14.498;2022-09-09T07:30:43;100052.09;;;21.93;88.85
46946;BME280;32679;40.810;14.498;2022-09-09T07:33:09;100055.38;;;22.08;88.34
46946;BME280;32679;40.810;14.498;2022-09-09T07:35:37;100052.25;;;22.35;87.50
46946;BME280;32679;40.810;14.498;2022-09-09T07:38:03;100046.28;;;22.45;85.92
46946;BME280;32679;40.810;14.498;2022-09-09T07:40:32;100047.41;;;22.77;84.21
46946;BME280;32679;40.810;14.498;2022-09-09T07:42:58;100053.03;;;22.93;81.54
46946;BME280;32679;40.810;14.498;2022-09-09T07:45:24;100055.69;;;23.26;80.08
46946;BME280;32679;40.810;14.498;2022-09-09T07:47:49;100057.75;;;23.64;78.50
46946;BME280;32679;40.810;14.498;2022-09-09T07:50:16;100067.34;;;24.04;75.51
46946;BME280;32679;40.810;14.498;2022-09-09T07:52:41;100062.34;;;23.96;74.03
46946;BME280;32679;40.810;14.498;2022-09-09T07:55:06;100052.56;;;24.44;74.54
46946;BME280;32679;40.810;14.498;2022-09-09T07:57:32;100052.31;;;24.95;70.09
46946;BME280;32679;40.810;14.498;2022-09-09T07:59:57;100050.38;;;25.45;68.31
46946;BME280;32679;40.810;14.498;2022-09-09T08:02:23;100053.25;;;26.04;67.67
46946;BME280;32679;40.810;14.498;2022-09-09T08:04:50;100059.00;;;26.77;66.57
46946;BME280;32679;40.810;14.498;2022-09-09T08:07:16;100066.53;;;27.26;63.07
46946;BME280;32679;40.810;14.498;2022-09-09T08:09:42;100060.53;;;27.57;61.98
46946;BME280;32679;40.810;14.498;2022-09-09T08:12:08;100066.09;;;27.94;60.37
46946;BME280;32679;40.810;14.498;2022-09-09T08:14:34;100063.47;;;28.29;59.92
46946;BME280;32679;40.810;14.498;2022-09-09T08:16:59;100056.91;;;28.14;58.08
46946;BME280;32679;40.810;14.498;2022-09-09T08:19:25;100060.59;;;28.53;56.93
46946;BME280;32679;40.810;14.498;2022-09-09T08:21:50;100052.34;;;29.44;55.74
46946;BME280;32679;40.810;14.498;2022-09-09T08:24:16;100060.28;;;30.19;51.94
46946;BME280;32679;40.810;14.498;2022-09-09T08:26:48;100068.88;;;30.40;53.32
46946;BME280;32679;40.810;14.498;2022-09-09T08:29:14;100064.34;;;31.00;51.84
46946;BME280;32679;40.810;14.498;2022-09-09T08:31:41;100061.41;;;31.20;48.56
46946;BME280;32679;40.810;14.498;2022-09-09T08:34:07;100054.66;;;31.55;48.14
46946;BME280;32679;40.810;14.498;2022-09-09T08:36:38;100057.19;;;32.33;47.16
46946;BME280;32679;40.810;14.498;2022-09-09T08:39:04;100057.16;;;32.87;45.82
46946;BME280;32679;40.810;14.498;2022-09-09T08:41:33;100050.66;;;33.09;45.16
46946;BME280;32679;40.810;14.498;2022-09-09T08:44:02;100050.91;;;33.28;43.65
46946;BME280;32679;40.810;14.498;2022-09-09T08:46:37;100057.72;;;33.08;41.53
46946;BME280;32679;40.810;14.498;2022-09-09T08:51:48;100058.72;;;33.89;41.49
46946;BME280;32679;40.810;14.498;2022-09-09T08:54:14;100062.09;;;34.10;42.10
46946;BME280;32679;40.810;14.498;2022-09-09T08:56:40;100062.75;;;34.50;40.57
46946;BME280;32679;40.810;14.498;2022-09-09T08:59:07;100070.38;;;34.47;38.67
46946;BME280;32679;40.810;14.498;2022-09-09T09:01:41;100060.69;;;34.33;39.05
46946;BME280;32679;40.810;14.498;2022-09-09T09:04:21;100055.09;;;33.38;41.39
46946;BME280;32679;40.810;14.498;2022-09-09T09:07:02;100061.53;;;34.23;39.49
46946;BME280;32679;40.810;14.498;2022-09-09T09:09:50;100054.84;;;33.64;40.76
46946;BME280;32679;40.810;14.498;2022-09-09T09:12:24;100053.53;;;33.31;41.94
46946;BME280;32679;40.810;14.498;2022-09-09T09:14:50;100062.72;;;33.24;41.78
46946;BME280;32679;40.810;14.498;2022-09-09T09:17:17;100060.16;;;32.39;43.81
46946;BME280;32679;40.810;14.498;2022-09-09T09:19:44;100065.81;;;32.27;45.26
46946;BME280;32679;40.810;14.498;2022-09-09T09:22:32;100062.97;;;31.85;46.12
46946;BME280;32679;40.810;14.498;2022-09-09T09:25:04;100065.88;;;31.90;45.76
46946;BME280;32679;40.810;14.498;2022-09-09T09:30:20;100058.94;;;31.34;48.25
46946;BME280;32679;40.810;14.498;2022-09-09T09:32:51;100069.91;;;32.04;44.94
46946;BME280;32679;40.810;14.498;2022-09-09T09:35:18;100068.72;;;31.21;47.18
46946;BME280;32679;40.810;14.498;2022-09-09T09:37:44;100063.91;;;31.70;45.48
46946;BME280;32679;40.810;14.498;2022-09-09T09:40:11;100063.13;;;32.78;44.68
46946;BME280;32679;40.810;14.498;2022-09-09T09:42:37;100068.53;;;32.48;43.69
46946;BME280;32679;40.810;14.498;2022-09-09T09:45:16;100064.06;;;32.36;44.41
46946;BME280;32679;40.810;14.498;2022-09-09T09:47:45;100057.38;;;32.07;44.46
46946;BME280;32679;40.810;14.498;2022-09-09T09:50:18;100060.84;;;33.10;43.13
46946;BME280;32679;40.810;14.498;2022-09-09T09:52:53;100062.38;;;34.01;41.21
46946;BME280;32679;40.810;14.498;2022-09-09T09:55:18;100055.56;;;35.09;39.95
46946;BME280;32679;40.810;14.498;2022-09-09T09:57:44;100059.66;;;34.31;39.98
46946;BME280;32679;40.810;14.498;2022-09-09T10:02:38;100056.66;;;33.78;41.82
46946;BME280;32679;40.810;14.498;2022-09-09T10:05:16;100061.38;;;33.31;43.19
46946;BME280;32679;40.810;14.498;2022-09-09T10:07:41;100061.66;;;33.72;42.37
46946;BME280;32679;40.810;14.498;2022-09-09T10:10:13;100061.13;;;33.62;42.70
46946;BME280;32679;40.810;14.498;2022-09-09T10:15:20;100062.66;;;33.86;41.61
46946;BME280;32679;40.810;14.498;2022-09-09T10:18:14;100069.56;;;34.52;40.40
46946;BME280;32679;40.810;14.498;2022-09-09T10:20:43;100056.97;;;35.32;40.52
46946;BME280;32679;40.810;14.498;2022-09-09T10:23:18;100062.72;;;35.38;38.84
46946;BME280;32679;40.810;14.498;2022-09-09T10:29:14;100073.59;;;36.11;37.95
46946;BME280;32679;40.810;14.498;2022-09-09T10:31:22;100065.22;;;36.07;37.85
46946;BME280;32679;40.810;14.498;2022-09-09T10:34:24;100070.31;;;35.95;37.42
46946;BME280;32679;40.810;14.498;2022-09-09T10:36:44;100073.06;;;36.31;36.69
46946;BME280;32679;40.810;14.498;2022-09-09T10:42:09;100066.56;;;36.25;37.52
46946;BME280;32679;40.810;14.498;2022-09-09T10:54:57;100073.38;;;35.79;39.48
46946;BME280;32679;40.810;14.498;2022-09-09T11:00:01;100069.81;;;35.01;40.01
46946;BME280;32679;40.810;14.498;2022-09-09T11:02:29;100067.59;;;35.54;39.28
46946;BME280;32679;40.810;14.498;2022-09-09T11:05:41;100071.19;;;35.85;39.49
46946;BME280;32679;40.810;14.498;2022-09-09T11:07:41;100073.38;;;35.79;39.43
46946;BME280;32679;40.810;14.498;2022-09-09T11:12:42;100071.69;;;35.89;39.12
46946;BME280;32679;40.810;14.498;2022-09-09T11:15:19;100081.53;;;36.29;39.09
46946;BME280;32679;40.810;14.498;2022-09-09T11:17:50;100072.38;;;36.25;39.10
46946;BME280;32679;40.810;14.498;2022-09-09T11:20:17;100079.31;;;36.16;39.94
46946;BME280;32679;40.810;14.498;2022-09-09T11:22:45;100073.06;;;36.12;39.93
46946;BME280;32679;40.810;14.498;2022-09-09T11:40:43;100073.25;;;34.53;46.19
46946;BME280;32679;40.810;14.498;2022-09-09T11:43:09;100070.56;;;35.07;44.43
46946;BME280;32679;40.810;14.498;2022-09-09T11:45:37;100067.84;;;34.79;45.79
46946;BME280;32679;40.810;14.498;2022-09-09T11:48:04;100069.91;;;34.84;46.32
46946;BME280;32679;40.810;14.498;2022-09-09T11:50:32;100060.41;;;34.48;47.41
46946;BME280;32679;40.810;14.498;2022-09-09T11:53:05;100070.03;;;34.62;47.15
46946;BME280;32679;40.810;14.498;2022-09-09T11:55:32;100063.53;;;34.97;46.40
46946;BME280;32679;40.810;14.498;2022-09-09T11:58:00;100054.69;;;34.78;46.07
46946;BME280;32679;40.810;14.498;2022-09-09T12:02:58;100066.25;;;34.78;46.64
46946;BME280;32679;40.810;14.498;2022-09-09T12:05:24;100064.63;;;34.36;47.38
46946;BME280;32679;40.810;14.498;2022-09-09T12:07:59;100073.72;;;34.62;47.16
46946;BME280;32679;40.810;14.498;2022-09-09T12:10:28;100072.50;;;34.30;48.10
46946;BME280;32679;40.810;14.498;2022-09-09T12:12:54;100075.03;;;33.14;50.36
46946;BME280;32679;40.810;14.498;2022-09-09T12:15:21;100066.00;;;32.72;52.81
46946;BME280;32679;40.810;14.498;2022-09-09T12:17:52;100064.97;;;32.86;52.69
46946;BME280;32679;40.810;14.498;2022-09-09T12:20:22;100070.56;;;33.63;50.78
46946;BME280;32679;40.810;14.498;2022-09-09T12:25:26;100070.59;;;33.52;50.97
46946;BME280;32679;40.810;14.498;2022-09-09T12:30:28;100066.50;;;32.65;53.19
46946;BME280;32679;40.810;14.498;2022-09-09T12:33:02;100061.88;;;32.96;52.64
46946;BME280;32679;40.810;14.498;2022-09-09T12:35:27;100063.50;;;33.08;52.24
46946;BME280;32679;40.810;14.498;2022-09-09T12:38:00;100063.75;;;33.44;51.45
46946;BME280;32679;40.810;14.498;2022-09-09T12:40:31;100064.28;;;33.14;51.21
46946;BME280;32679;40.810;14.498;2022-09-09T12:42:57;100075.06;;;33.42;50.46
46946;BME280;32679;40.810;14.498;2022-09-09T12:45:26;100068.97;;;33.17;50.62
46946;BME280;32679;40.810;14.498;2022-09-09T12:50:19;100065.06;;;33.15;51.71
46946;BME280;32679;40.810;14.498;2022-09-09T12:52:46;100066.88;;;33.34;51.47
46946;BME280;32679;40.810;14.498;2022-09-09T12:55:16;100066.28;;;32.80;52.94
46946;BME280;32679;40.810;14.498;2022-09-09T12:57:42;100066.88;;;33.18;52.34
46946;BME280;32679;40.810;14.498;2022-09-09T13:00:13;100065.28;;;32.89;54.08
46946;BME280;32679;40.810;14.498;2022-09-09T13:05:27;100057.94;;;32.88;53.32
46946;BME280;32679;40.810;14.498;2022-09-09T13:08:00;100057.38;;;32.83;53.75
46946;BME280;32679;40.810;14.498;2022-09-09T13:10:27;100056.91;;;32.96;53.42
46946;BME280;32679;40.810;14.498;2022-09-09T13:12:54;100062.94;;;32.93;53.80
46946;BME280;32679;40.810;14.498;2022-09-09T13:15:21;100060.94;;;32.39;55.22
46946;BME280;32679;40.810;14.498;2022-09-09T13:17:51;100060.22;;;32.61;53.28
46946;BME280;32679;40.810;14.498;2022-09-09T13:20:18;100051.31;;;32.70;53.52
46946;BME280;32679;40.810;14.498;2022-09-09T13:22:44;100052.66;;;32.86;53.45
46946;BME280;32679;40.810;14.498;2022-09-09T13:27:39;100051.41;;;32.93;54.27
46946;BME280;32679;40.810;14.498;2022-09-09T13:30:25;100056.69;;;32.34;54.29
46946;BME280;32679;40.810;14.498;2022-09-09T13:35:35;100062.16;;;32.32;55.23
46946;BME280;32679;40.810;14.498;2022-09-09T13:38:07;100054.75;;;32.74;54.33
46946;BME280;32679;40.810;14.498;2022-09-09T13:40:33;100050.91;;;32.29;53.04
46946;BME280;32679;40.810;14.498;2022-09-09T13:42:59;100047.94;;;32.72;52.71
46946;BME280;32679;40.810;14.498;2022-09-09T13:45:26;100053.97;;;32.79;53.12
46946;BME280;32679;40.810;14.498;2022-09-09T13:47:54;100045.72;;;31.85;55.18
46946;BME280;32679;40.810;14.498;2022-09-09T13:50:27;100043.09;;;31.81;56.41
46946;BME280;32679;40.810;14.498;2022-09-09T13:52:54;100039.50;;;32.46;54.71
46946;BME280;32679;40.810;14.498;2022-09-09T13:55:20;100033.63;;;32.23;53.69
46946;BME280;32679;40.810;14.498;2022-09-09T13:57:56;100037.81;;;31.79;55.94
46946;BME280;32679;40.810;14.498;2022-09-09T14:00:22;100036.31;;;31.84;55.31
46946;BME280;32679;40.810;14.498;2022-09-09T14:02:48;100022.78;;;31.59;54.67
46946;BME280;32679;40.810;14.498;2022-09-09T14:05:13;100027.97;;;32.46;52.78
46946;BME280;32679;40.810;14.498;2022-09-09T14:07:41;100029.09;;;32.05;54.40
46946;BME280;32679;40.810;14.498;2022-09-09T14:10:07;100029.88;;;32.06;54.60
46946;BME280;32679;40.810;14.498;2022-09-09T14:12:32;100031.84;;;31.83;54.70
46946;BME280;32679;40.810;14.498;2022-09-09T14:14:58;100033.47;;;31.95;54.40
46946;BME280;32679;40.810;14.498;2022-09-09T14:17:24;100030.31;;;31.19;55.95
46946;BME280;32679;40.810;14.498;2022-09-09T14:19:50;100034.03;;;31.99;53.87
46946;BME280;32679;40.810;14.498;2022-09-09T14:22:15;100035.44;;;31.35;56.01
46946;BME280;32679;40.810;14.498;2022-09-09T14:24:40;100028.06;;;31.66;55.54
46946;BME280;32679;40.810;14.498;2022-09-09T14:27:06;100032.00;;;31.68;55.35
46946;BME280;32679;40.810;14.498;2022-09-09T14:29:31;100027.28;;;31.28;56.97
46946;BME280;32679;40.810;14.498;2022-09-09T14:31:58;100026.06;;;31.40;56.98
46946;BME280;32679;40.810;14.498;2022-09-09T14:34:26;100035.81;;;31.22;57.60
46946;BME280;32679;40.810;14.498;2022-09-09T14:36:51;100029.44;;;31.07;57.67
46946;BME280;32679;40.810;14.498;2022-09-09T14:39:17;100033.44;;;31.21;56.09